createdAt,value
2019-01-09T00:00:47.512Z,5.28
2019-01-09T00:01:47.496Z,5.38
2019-01-09T00:02:47.489Z,5.46
2019-01-09T00:03:47.482Z,5.32
2019-01-09T00:04:47.464Z,5.32
2019-01-09T00:05:47.456Z,5.31
2019-01-09T00:06:47.461Z,5.35
2019-01-09T00:07:47.430Z,5.37
2019-01-09T00:08:47.436Z,5.43
2019-01-09T00:09:47.419Z,5.40
2019-01-09T00:10:47.408Z,5.34
2019-01-09T00:11:47.399Z,5.32
2019-01-09T00:12:47.389Z,5.40
2019-01-09T00:13:47.428Z,5.37
2019-01-09T00:14:47.361Z,5.34
2019-01-09T00:15:47.397Z,5.31
2019-01-09T00:16:47.347Z,5.30
2019-01-09T00:17:47.337Z,5.27
2019-01-09T00:18:47.330Z,5.31
2019-01-09T00:19:47.315Z,5.40
2019-01-09T00:20:47.307Z,5.43
2019-01-09T00:21:47.295Z,5.38
2019-01-09T00:22:47.280Z,5.49
2019-01-09T00:23:47.268Z,5.38
2019-01-09T00:24:47.262Z,5.35
2019-01-09T00:25:47.249Z,5.34
2019-01-09T00:26:47.237Z,5.38
2019-01-09T00:27:47.238Z,5.43
2019-01-09T00:28:47.223Z,5.35
2019-01-09T00:29:47.225Z,5.38
2019-01-09T00:30:47.195Z,5.32
2019-01-09T00:31:47.208Z,5.45
2019-01-09T00:32:47.183Z,5.34
2019-01-09T00:33:47.173Z,5.37
2019-01-09T00:34:47.155Z,5.38
2019-01-09T00:35:47.149Z,5.38
2019-01-09T00:36:47.136Z,5.49
2019-01-09T00:37:47.126Z,5.45
2019-01-09T00:38:47.121Z,5.38
2019-01-09T00:39:47.106Z,5.46
2019-01-09T00:40:47.103Z,5.43
2019-01-09T00:41:47.094Z,5.43
2019-01-09T00:42:47.072Z,5.45
2019-01-09T00:43:47.066Z,5.41
2019-01-09T00:44:47.050Z,5.41
2019-01-09T00:45:47.048Z,5.49
2019-01-09T00:46:47.136Z,5.53
2019-01-09T00:47:47.023Z,5.46
2019-01-09T00:48:47.006Z,5.48
2019-01-09T00:49:47.002Z,5.43
2019-01-09T00:50:46.991Z,5.50
2019-01-09T00:51:46.989Z,5.49
2019-01-09T00:52:46.973Z,5.41
2019-01-09T00:53:46.957Z,5.48
2019-01-09T00:54:46.970Z,5.41
2019-01-09T00:55:46.943Z,5.38
2019-01-09T00:56:46.942Z,5.48
2019-01-09T00:57:46.921Z,5.45
2019-01-09T00:58:46.906Z,5.50
2019-01-09T00:59:46.900Z,5.48
2019-01-09T01:00:46.892Z,5.45
2019-01-09T01:01:46.878Z,5.52
2019-01-09T01:02:46.872Z,5.41
2019-01-09T01:03:48.390Z,5.50
2019-01-09T01:04:46.848Z,5.34
2019-01-09T01:05:46.849Z,5.30
2019-01-09T01:06:46.823Z,5.43
2019-01-09T01:07:55.468Z,5.34
2019-01-09T01:09:51.319Z,5.34
2019-01-09T01:10:51.274Z,5.46
2019-01-09T01:11:51.282Z,5.48
2019-01-09T01:12:51.558Z,5.34
2019-01-09T01:13:52.322Z,5.32
2019-01-09T01:14:51.510Z,5.37
2019-01-09T01:15:51.234Z,5.34
2019-01-09T01:16:51.235Z,5.30
2019-01-09T01:17:51.205Z,5.30
2019-01-09T01:18:51.223Z,5.30
2019-01-09T01:19:51.206Z,5.34
2019-01-09T01:20:51.170Z,5.30
2019-01-09T01:21:51.172Z,5.31
2019-01-09T01:22:51.170Z,5.31
2019-01-09T01:23:51.148Z,5.34
2019-01-09T01:24:51.178Z,5.34
2019-01-09T01:25:51.126Z,5.30
2019-01-09T01:26:51.146Z,5.34
2019-01-09T01:27:51.131Z,5.27
2019-01-09T01:28:51.116Z,5.28
2019-01-09T01:29:51.089Z,5.30
2019-01-09T01:30:51.070Z,5.28
2019-01-09T01:31:51.062Z,5.23
2019-01-09T01:32:51.046Z,5.32
2019-01-09T01:33:51.076Z,5.31
2019-01-09T01:34:51.040Z,5.32
2019-01-09T01:35:54.798Z,5.25
2019-01-09T01:36:51.043Z,5.31
2019-01-09T01:37:51.001Z,5.35
2019-01-09T01:38:51.019Z,5.27
2019-01-09T01:39:51.006Z,5.28
2019-01-09T01:40:50.978Z,5.31
2019-01-09T01:41:50.964Z,5.22
2019-01-09T01:42:50.967Z,5.25
2019-01-09T01:43:50.942Z,5.23
2019-01-09T01:44:50.931Z,5.25
2019-01-09T01:45:50.974Z,5.30
2019-01-09T01:46:50.934Z,5.22
2019-01-09T01:47:50.902Z,5.22
2019-01-09T01:48:50.891Z,5.23
2019-01-09T01:49:50.893Z,5.23
2019-01-09T01:50:50.877Z,5.22
2019-01-09T01:51:50.863Z,5.28
2019-01-09T01:52:50.844Z,5.23
2019-01-09T01:53:50.836Z,5.22
2019-01-09T01:54:50.826Z,5.22
2019-01-09T01:55:50.891Z,5.27
2019-01-09T01:56:50.838Z,5.16
2019-01-09T01:57:50.804Z,5.23
2019-01-09T01:58:50.799Z,5.13
2019-01-09T01:59:50.774Z,5.30
2019-01-09T02:00:50.762Z,5.25
2019-01-09T02:01:50.758Z,5.23
2019-01-09T02:02:50.749Z,5.20
2019-01-09T02:03:50.738Z,5.30
2019-01-09T02:04:50.735Z,5.23
2019-01-09T02:05:50.704Z,5.25
2019-01-09T02:06:50.709Z,5.20
2019-01-09T02:07:50.708Z,5.16
2019-01-09T02:08:50.676Z,5.20
2019-01-09T02:09:50.665Z,5.27
2019-01-09T02:10:50.666Z,5.25
2019-01-09T02:11:50.651Z,5.22
2019-01-09T02:12:50.635Z,5.31
2019-01-09T02:13:50.642Z,5.30
2019-01-09T02:14:50.618Z,5.22
2019-01-09T02:15:50.608Z,5.17
2019-01-09T02:16:50.594Z,5.22
2019-01-09T02:17:50.582Z,5.10
2019-01-09T02:18:50.572Z,5.10
2019-01-09T02:19:50.577Z,5.19
2019-01-09T02:20:50.572Z,5.12
2019-01-09T02:21:50.552Z,5.13
2019-01-09T02:22:50.529Z,5.17
2019-01-09T02:23:50.540Z,5.19
2019-01-09T02:24:50.515Z,5.09
2019-01-09T02:25:50.535Z,5.13
2019-01-09T02:26:50.491Z,5.14
2019-01-09T02:27:50.481Z,5.13
2019-01-09T02:28:50.472Z,5.23
2019-01-09T02:29:50.457Z,5.19
2019-01-09T02:30:50.455Z,5.13
2019-01-09T02:31:50.448Z,5.17
2019-01-09T02:32:50.428Z,5.32
2019-01-09T02:33:50.427Z,5.22
2019-01-09T02:34:50.405Z,5.25
2019-01-09T02:35:50.414Z,5.22
2019-01-09T02:36:50.385Z,5.22
2019-01-09T02:37:50.412Z,5.32
2019-01-09T02:38:50.369Z,5.27
2019-01-09T02:39:50.354Z,5.25
2019-01-09T02:40:52.050Z,5.30
2019-01-09T02:41:50.332Z,5.31
2019-01-09T02:42:50.329Z,5.34
2019-01-09T02:43:50.312Z,5.28
2019-01-09T02:44:50.314Z,5.35
2019-01-09T02:45:50.296Z,5.23
2019-01-09T02:46:50.346Z,5.22
2019-01-09T02:47:50.275Z,5.25
2019-01-09T02:48:50.269Z,5.25
2019-01-09T02:49:50.255Z,5.27
2019-01-09T02:50:50.251Z,5.32
2019-01-09T02:51:50.231Z,5.31
2019-01-09T02:52:50.222Z,5.34
2019-01-09T02:53:50.217Z,5.25
2019-01-09T02:54:50.208Z,5.30
2019-01-09T02:55:50.192Z,5.27
2019-01-09T02:56:50.176Z,5.28
2019-01-09T03:14:33.815Z,5.10
2019-01-09T03:15:33.774Z,5.17
2019-01-09T03:16:33.757Z,5.20
2019-01-09T03:17:33.748Z,5.13
2019-01-09T03:18:33.730Z,5.10
2019-01-09T03:19:33.718Z,5.10
2019-01-09T03:20:33.702Z,5.20
2019-01-09T03:21:33.711Z,5.12
2019-01-09T03:22:33.683Z,5.12
2019-01-09T03:23:33.671Z,5.14
2019-01-09T03:24:33.653Z,5.05
2019-01-09T03:25:33.696Z,5.13
2019-01-09T03:26:33.623Z,5.10
2019-01-09T03:27:33.614Z,5.10
2019-01-09T03:28:33.603Z,5.10
2019-01-09T03:29:33.588Z,5.13
2019-01-09T03:30:33.605Z,5.13
2019-01-09T03:31:33.581Z,5.13
2019-01-09T03:32:33.568Z,5.20
2019-01-09T03:33:33.550Z,5.20
2019-01-09T03:34:33.541Z,5.16
2019-01-09T03:35:33.524Z,5.17
2019-01-09T03:36:33.514Z,5.14
2019-01-09T03:37:33.509Z,5.09
2019-01-09T03:38:33.497Z,5.16
2019-01-09T03:39:33.487Z,5.14
2019-01-09T03:40:33.480Z,5.12
2019-01-09T03:41:33.465Z,5.09
2019-01-09T03:42:33.452Z,5.13
2019-01-09T03:43:33.443Z,5.09
2019-01-09T03:44:33.430Z,5.13
2019-01-09T03:45:33.436Z,5.13
2019-01-09T03:46:33.402Z,5.19
2019-01-09T03:47:42.070Z,5.16
2019-01-09T03:49:49.149Z,5.12
2019-01-09T03:50:49.124Z,5.12
2019-01-09T03:51:49.115Z,5.13
2019-01-09T03:52:49.098Z,5.12
2019-01-09T03:53:49.094Z,5.12
2019-01-09T03:54:49.076Z,5.05
2019-01-09T03:55:49.070Z,5.10
2019-01-09T03:56:49.070Z,5.17
2019-01-09T03:57:49.046Z,5.10
2019-01-09T03:58:49.038Z,5.07
2019-01-09T03:59:49.029Z,5.12
2019-01-09T04:00:49.017Z,5.14
2019-01-09T04:01:49.001Z,5.12
2019-01-09T04:02:48.993Z,5.07
2019-01-09T04:03:48.988Z,5.09
2019-01-09T04:04:48.969Z,5.14
2019-01-09T04:05:48.966Z,5.07
2019-01-09T04:06:48.958Z,5.12
2019-01-09T04:07:48.941Z,5.10
2019-01-09T04:08:48.932Z,5.12
2019-01-09T04:09:48.924Z,5.16
2019-01-09T04:10:48.919Z,5.10
2019-01-09T04:11:48.904Z,5.12
2019-01-09T04:12:48.901Z,5.10
2019-01-09T04:13:48.881Z,5.07
2019-01-09T04:14:48.879Z,5.07
2019-01-09T04:15:48.864Z,5.07
2019-01-09T04:16:48.847Z,5.13
2019-01-09T04:17:48.839Z,5.09
2019-01-09T04:18:48.826Z,4.99
2019-01-09T04:19:48.840Z,5.09
2019-01-09T04:20:48.806Z,5.10
2019-01-09T04:21:48.801Z,5.14
2019-01-09T04:22:48.781Z,5.09
2019-01-09T04:23:48.777Z,5.09
2019-01-09T04:24:48.765Z,5.12
2019-01-09T04:25:48.760Z,5.13
2019-01-09T04:26:48.746Z,5.14
2019-01-09T04:27:48.741Z,5.02
2019-01-09T04:28:48.730Z,5.12
2019-01-09T04:29:48.719Z,5.10
2019-01-09T04:30:48.733Z,5.09
2019-01-09T04:31:48.697Z,5.09
2019-01-09T04:32:48.690Z,5.12
2019-01-09T04:33:48.694Z,5.07
2019-01-09T04:34:48.667Z,5.02
2019-01-09T04:35:48.672Z,5.10
2019-01-09T04:36:51.948Z,5.14
2019-01-09T04:37:48.632Z,5.16
2019-01-09T04:38:48.623Z,5.13
2019-01-09T04:39:48.619Z,5.14
2019-01-09T04:40:48.608Z,5.10
2019-01-09T04:41:48.594Z,5.09
2019-01-09T04:42:48.582Z,5.10
2019-01-09T04:43:48.574Z,5.05
2019-01-09T04:44:48.559Z,5.12
2019-01-09T04:45:48.549Z,5.13
2019-01-09T04:46:48.538Z,5.13
2019-01-09T04:47:48.531Z,5.10
2019-01-09T04:48:48.527Z,5.16
2019-01-09T04:49:48.504Z,5.12
2019-01-09T04:50:48.505Z,5.14
2019-01-09T04:51:48.621Z,5.05
2019-01-09T04:52:48.472Z,5.07
2019-01-09T04:53:48.462Z,5.05
2019-01-09T04:54:48.466Z,5.05
2019-01-09T04:55:48.469Z,5.02
2019-01-09T04:56:48.497Z,5.07
2019-01-09T04:57:48.416Z,5.02
2019-01-09T04:58:48.423Z,4.96
2019-01-09T04:59:48.422Z,5.13
2019-01-09T05:00:48.393Z,5.07
2019-01-09T05:01:48.385Z,4.99
2019-01-09T05:02:48.401Z,5.09
2019-01-09T05:03:48.372Z,5.07
2019-01-09T05:04:49.479Z,5.13
2019-01-09T05:05:48.359Z,5.07
2019-01-09T05:06:48.340Z,5.07
2019-01-09T05:07:48.336Z,5.12
2019-01-09T05:08:48.317Z,5.04
2019-01-09T05:09:48.312Z,4.98
2019-01-09T05:10:48.295Z,5.05
2019-01-09T05:11:48.294Z,5.02
2019-01-09T05:12:48.268Z,4.94
2019-01-09T05:13:48.267Z,5.01
2019-01-09T05:14:48.277Z,5.09
2019-01-09T05:15:48.234Z,4.99
2019-01-09T05:16:48.247Z,5.09
2019-01-09T05:17:48.213Z,5.13
2019-01-09T05:18:48.222Z,5.01
2019-01-09T05:19:48.227Z,5.10
2019-01-09T05:20:48.222Z,4.94
2019-01-09T05:21:48.226Z,5.01
2019-01-09T05:22:48.186Z,4.96
2019-01-09T05:23:48.155Z,5.10
2019-01-09T05:24:48.152Z,4.98
2019-01-09T05:25:48.141Z,5.09
2019-01-09T05:26:48.130Z,5.05
2019-01-09T05:27:48.153Z,5.16
2019-01-09T05:28:48.114Z,5.10
2019-01-09T05:29:48.095Z,5.10
2019-01-09T05:30:48.112Z,5.01
2019-01-09T05:31:48.094Z,4.96
2019-01-09T05:32:48.053Z,5.01
2019-01-09T05:33:48.100Z,4.95
2019-01-09T05:34:48.063Z,5.02
2019-01-09T05:35:48.055Z,4.92
2019-01-09T05:36:48.014Z,4.96
2019-01-09T05:37:48.020Z,4.96
2019-01-09T05:38:48.005Z,4.94
2019-01-09T05:39:47.998Z,5.05
2019-01-09T05:40:48.005Z,5.01
2019-01-09T05:41:47.963Z,4.99
2019-01-09T05:42:47.961Z,4.95
2019-01-09T05:43:47.941Z,4.92
2019-01-09T05:44:47.934Z,4.96
2019-01-09T05:45:47.941Z,4.96
2019-01-09T05:46:47.937Z,5.01
2019-01-09T05:47:47.905Z,5.09
2019-01-09T05:48:47.891Z,5.01
2019-01-09T05:49:47.890Z,5.02
2019-01-09T05:50:47.881Z,5.09
2019-01-09T05:51:47.879Z,5.05
2019-01-09T05:52:47.860Z,5.13
2019-01-09T05:53:47.840Z,4.99
2019-01-09T05:54:47.830Z,5.09
2019-01-09T05:55:47.879Z,4.92
2019-01-09T05:56:47.805Z,4.96
2019-01-09T05:57:47.815Z,5.02
2019-01-09T05:58:47.788Z,4.98
2019-01-09T05:59:47.779Z,4.95
2019-01-09T06:00:47.760Z,4.99
2019-01-09T06:01:47.786Z,5.13
2019-01-09T06:02:47.754Z,5.13
2019-01-09T06:03:47.759Z,5.04
2019-01-09T06:04:47.732Z,5.10
2019-01-09T06:05:47.715Z,5.13
2019-01-09T06:06:47.705Z,5.07
2019-01-09T06:07:47.700Z,4.96
2019-01-09T06:08:47.679Z,5.10
2019-01-09T06:09:47.664Z,4.98
2019-01-09T06:10:47.664Z,5.05
2019-01-09T06:11:47.650Z,4.94
2019-01-09T06:12:47.636Z,5.04
2019-01-09T06:13:47.629Z,5.14
2019-01-09T06:14:47.621Z,5.01
2019-01-09T06:15:47.619Z,4.99
2019-01-09T06:16:47.589Z,4.99
2019-01-09T06:17:47.584Z,5.05
2019-01-09T06:18:47.577Z,5.05
2019-01-09T06:19:47.561Z,4.99
2019-01-09T06:20:47.559Z,5.07
2019-01-09T06:21:47.538Z,5.14
2019-01-09T06:22:47.557Z,5.01
2019-01-09T06:23:47.525Z,4.99
2019-01-09T06:24:47.503Z,5.12
2019-01-09T06:25:47.504Z,4.99
2019-01-09T06:26:47.492Z,4.98
2019-01-09T06:27:47.481Z,4.98
2019-01-09T06:28:47.469Z,4.95
2019-01-09T06:29:47.454Z,4.96
2019-01-09T06:30:47.445Z,4.96
2019-01-09T06:31:47.440Z,4.92
2019-01-09T06:32:47.425Z,4.96
2019-01-09T06:33:47.434Z,4.95
2019-01-09T06:34:47.408Z,5.05
2019-01-09T06:35:47.396Z,4.92
2019-01-09T06:36:47.392Z,4.98
2019-01-09T06:37:47.368Z,4.96
2019-01-09T06:38:47.364Z,4.89
2019-01-09T06:39:47.352Z,4.84
2019-01-09T06:40:47.340Z,4.89
2019-01-09T06:41:47.334Z,4.86
2019-01-09T06:42:47.322Z,4.84
2019-01-09T06:43:47.309Z,4.84
2019-01-09T06:44:47.299Z,4.79
2019-01-09T06:45:47.291Z,4.88
2019-01-09T06:46:47.280Z,4.80
2019-01-09T06:47:47.274Z,4.86
2019-01-09T06:48:47.254Z,4.83
2019-01-09T06:49:47.286Z,4.73
2019-01-09T06:50:47.278Z,4.67
2019-01-09T06:51:47.250Z,4.72
2019-01-09T06:52:47.282Z,4.67
2019-01-09T06:53:47.202Z,4.67
2019-01-09T06:54:47.218Z,4.67
2019-01-09T06:55:47.247Z,4.73
2019-01-09T06:56:47.197Z,4.75
2019-01-09T06:57:47.170Z,4.64
2019-01-09T06:58:47.160Z,4.70
2019-01-09T06:59:47.144Z,4.73
2019-01-09T07:00:47.133Z,4.67
2019-01-09T07:01:47.344Z,4.70
2019-01-09T07:02:47.150Z,4.77
2019-01-09T07:03:47.095Z,4.67
2019-01-09T07:04:47.099Z,4.72
2019-01-09T07:05:47.083Z,4.65
2019-01-09T07:06:55.790Z,4.57
2019-01-09T07:08:40.524Z,4.70
2019-01-09T07:09:40.858Z,4.64
2019-01-09T07:10:40.487Z,4.73
2019-01-09T07:11:40.540Z,4.65
2019-01-09T07:12:40.433Z,4.73
2019-01-09T07:13:40.426Z,4.76
2019-01-09T07:14:40.431Z,4.75
2019-01-09T07:15:40.395Z,4.76
2019-01-09T07:16:40.435Z,4.77
2019-01-09T07:17:40.377Z,4.80
2019-01-09T07:18:40.368Z,4.83
2019-01-09T07:19:40.347Z,4.79
2019-01-09T07:20:40.354Z,4.76
2019-01-09T07:21:45.519Z,4.72
2019-01-09T07:22:40.316Z,4.79
2019-01-09T07:23:40.421Z,4.73
2019-01-09T07:24:40.297Z,4.72
2019-01-09T07:25:40.316Z,4.80
2019-01-09T07:26:40.276Z,4.76
2019-01-09T07:27:40.276Z,4.83
2019-01-09T07:28:41.803Z,4.70
2019-01-09T07:29:40.247Z,4.75
2019-01-09T07:30:40.321Z,4.76
2019-01-09T07:31:40.227Z,4.70
2019-01-09T07:32:40.219Z,4.76
2019-01-09T07:33:40.290Z,4.75
2019-01-09T07:34:40.203Z,4.67
2019-01-09T07:35:40.191Z,4.73
2019-01-09T07:36:40.178Z,4.70
2019-01-09T07:37:44.868Z,4.65
2019-01-09T07:38:40.150Z,4.57
2019-01-09T07:39:40.144Z,4.64
2019-01-09T07:40:40.130Z,4.64
2019-01-09T07:41:40.132Z,4.58
2019-01-09T07:42:40.128Z,4.62
2019-01-09T07:43:40.132Z,4.55
2019-01-09T07:44:40.102Z,4.70
2019-01-09T07:45:40.078Z,4.77
2019-01-09T07:46:40.072Z,4.76
2019-01-09T07:47:40.069Z,4.77
2019-01-09T07:48:40.089Z,4.79
2019-01-09T07:49:40.039Z,4.75
2019-01-09T07:50:40.049Z,4.75
2019-01-09T07:51:40.019Z,4.72
2019-01-09T07:52:40.013Z,4.77
2019-01-09T07:53:39.996Z,4.72
2019-01-09T07:54:39.994Z,4.75
2019-01-09T07:55:39.977Z,4.67
2019-01-09T07:56:39.966Z,4.73
2019-01-09T07:57:39.958Z,4.64
2019-01-09T07:58:39.958Z,4.73
2019-01-09T07:59:40.014Z,4.79
2019-01-09T08:00:39.931Z,4.73
2019-01-09T08:01:39.932Z,4.79
2019-01-09T08:02:39.934Z,4.80
2019-01-09T08:03:39.900Z,4.96
2019-01-09T08:04:39.962Z,4.79
2019-01-09T08:05:39.883Z,4.79
2019-01-09T08:06:39.871Z,4.69
2019-01-09T08:07:39.859Z,4.88
2019-01-09T08:08:40.057Z,4.92
2019-01-09T08:09:40.035Z,4.91
2019-01-09T08:10:39.871Z,4.86
2019-01-09T08:11:39.843Z,4.88
2019-01-09T08:12:39.854Z,4.95
2019-01-09T08:13:39.787Z,4.96
2019-01-09T08:14:40.123Z,4.98
2019-01-09T08:15:39.879Z,5.05
2019-01-09T08:16:39.764Z,5.05
2019-01-09T08:17:39.746Z,4.98
2019-01-09T08:18:39.761Z,5.09
2019-01-09T08:19:39.751Z,5.04
2019-01-09T08:20:39.730Z,5.04
2019-01-09T08:21:39.711Z,5.13
2019-01-09T08:22:39.710Z,5.07
2019-01-09T08:23:39.682Z,5.07
2019-01-09T08:24:39.816Z,5.12
2019-01-09T08:25:39.678Z,5.13
2019-01-09T08:26:39.676Z,5.17
2019-01-09T08:27:39.699Z,5.10
2019-01-09T08:28:39.666Z,5.16
2019-01-09T08:29:39.657Z,5.12
2019-01-09T08:30:39.622Z,5.12
2019-01-09T08:31:39.602Z,5.12
2019-01-09T08:32:39.640Z,5.16
2019-01-09T08:33:39.583Z,5.17
2019-01-09T08:34:39.617Z,5.10
2019-01-09T08:35:39.571Z,5.09
2019-01-09T08:36:39.595Z,5.17
2019-01-09T08:37:39.618Z,5.25
2019-01-09T08:38:39.548Z,5.23
2019-01-09T08:39:39.529Z,5.23
2019-01-09T08:40:39.523Z,5.12
2019-01-09T08:41:39.511Z,5.23
2019-01-09T08:42:39.495Z,5.22
2019-01-09T08:43:39.498Z,5.27
2019-01-09T08:44:39.482Z,5.32
2019-01-09T08:45:39.459Z,5.23
2019-01-09T08:46:39.454Z,5.31
2019-01-09T08:47:39.447Z,5.27
2019-01-09T08:48:39.453Z,5.31
2019-01-09T08:49:39.428Z,5.28
2019-01-09T08:50:39.416Z,5.37
2019-01-09T08:51:39.427Z,5.35
2019-01-09T08:52:39.399Z,5.25
2019-01-09T08:53:39.387Z,5.32
2019-01-09T08:54:39.381Z,5.31
2019-01-09T08:55:39.367Z,5.37
2019-01-09T08:56:39.365Z,5.28
2019-01-09T08:57:39.359Z,5.35
2019-01-09T08:58:39.330Z,5.32
2019-01-09T08:59:39.327Z,5.32
2019-01-09T09:00:39.317Z,5.38
2019-01-09T09:01:39.302Z,5.31
2019-01-09T09:02:39.345Z,5.38
2019-01-09T09:03:39.297Z,5.35
2019-01-09T09:04:39.291Z,5.43
2019-01-09T09:05:39.269Z,5.37
2019-01-09T09:06:39.248Z,5.31
2019-01-09T09:07:39.559Z,5.30
2019-01-09T09:08:39.244Z,5.45
2019-01-09T09:09:39.241Z,5.41
2019-01-09T09:10:39.245Z,5.38
2019-01-09T09:11:39.206Z,5.35
2019-01-09T09:12:39.195Z,5.38
2019-01-09T09:13:39.209Z,5.32
2019-01-09T09:14:39.193Z,5.32
2019-01-09T09:15:39.183Z,5.28
2019-01-09T09:16:39.167Z,5.37
2019-01-09T09:17:39.139Z,5.37
2019-01-09T09:18:39.167Z,5.40
2019-01-09T09:19:39.121Z,5.34
2019-01-09T09:20:39.125Z,5.28
2019-01-09T09:21:39.099Z,5.46
2019-01-09T09:22:39.133Z,5.35
2019-01-09T09:23:47.782Z,5.35
2019-01-09T09:25:43.587Z,5.41
2019-01-09T09:26:43.642Z,5.45
2019-01-09T09:27:43.558Z,5.40
2019-01-09T09:28:43.556Z,5.40
2019-01-09T09:29:43.547Z,5.46
2019-01-09T09:30:43.524Z,5.43
2019-01-09T09:31:43.527Z,5.48
2019-01-09T09:32:43.504Z,5.45
2019-01-09T09:33:43.498Z,5.49
2019-01-09T09:34:43.482Z,5.48
2019-01-09T09:35:43.479Z,5.50
2019-01-09T09:36:43.494Z,5.53
2019-01-09T09:37:43.484Z,5.49
2019-01-09T09:38:43.444Z,5.50
2019-01-09T09:39:43.430Z,5.50
2019-01-09T09:40:43.451Z,5.48
2019-01-09T09:41:43.414Z,5.55
2019-01-09T09:42:43.412Z,5.56
2019-01-09T09:43:43.424Z,5.38
2019-01-09T09:44:43.391Z,5.50
2019-01-09T09:45:43.379Z,5.43
2019-01-09T09:46:43.361Z,5.50
2019-01-09T09:47:43.356Z,5.49
2019-01-09T09:48:43.343Z,5.48
2019-01-09T09:49:43.334Z,5.52
2019-01-09T09:50:43.320Z,5.49
2019-01-09T09:51:43.316Z,5.53
2019-01-09T09:52:43.295Z,5.55
2019-01-09T09:53:43.295Z,5.56
2019-01-09T09:54:43.280Z,5.50
2019-01-09T09:55:43.282Z,5.59
2019-01-09T09:56:43.262Z,5.56
2019-01-09T09:57:43.249Z,5.55
2019-01-09T09:58:43.237Z,5.52
2019-01-09T09:59:43.695Z,5.52
2019-01-09T10:00:43.225Z,5.63
2019-01-09T10:01:43.220Z,5.66
2019-01-09T10:02:43.230Z,5.60
2019-01-09T10:03:43.194Z,5.59
2019-01-09T10:04:43.179Z,5.64
2019-01-09T10:05:43.238Z,5.60
2019-01-09T10:06:43.158Z,5.52
2019-01-09T10:07:43.154Z,5.48
2019-01-09T10:08:43.153Z,5.53
2019-01-09T10:09:43.199Z,5.49
2019-01-09T10:10:43.119Z,5.55
2019-01-09T10:11:43.119Z,5.53
2019-01-09T10:12:43.106Z,5.52
2019-01-09T10:13:43.094Z,5.55
2019-01-09T10:14:43.077Z,5.52
2019-01-09T10:15:43.102Z,5.41
2019-01-09T10:16:43.068Z,5.52
2019-01-09T10:17:43.063Z,5.41
2019-01-09T10:18:43.051Z,5.48
2019-01-09T10:19:43.042Z,5.43
2019-01-09T10:20:43.017Z,5.49
2019-01-09T10:21:43.011Z,5.49
2019-01-09T10:22:43.008Z,5.55
2019-01-09T10:23:42.993Z,5.59
2019-01-09T10:24:42.987Z,5.63
2019-01-09T10:25:42.978Z,5.57
2019-01-09T10:26:42.961Z,5.66
2019-01-09T10:27:42.955Z,5.71
2019-01-09T10:28:42.938Z,5.63
2019-01-09T10:29:42.938Z,5.77
2019-01-09T10:30:42.956Z,5.78
2019-01-09T10:31:42.910Z,5.66
2019-01-09T10:32:42.910Z,5.71
2019-01-09T10:33:42.896Z,5.66
2019-01-09T10:34:42.881Z,5.67
2019-01-09T10:35:42.867Z,5.66
2019-01-09T10:36:42.863Z,5.77
2019-01-09T10:37:42.864Z,5.73
2019-01-09T10:38:51.581Z,5.73
2019-01-09T10:40:47.321Z,5.70
2019-01-09T10:41:47.299Z,5.68
2019-01-09T10:42:47.293Z,5.66
2019-01-09T10:43:47.281Z,5.67
2019-01-09T10:44:47.279Z,5.75
2019-01-09T10:45:47.266Z,5.70
2019-01-09T10:46:47.255Z,5.74
2019-01-09T10:47:47.266Z,5.78
2019-01-09T10:48:47.241Z,5.78
2019-01-09T10:49:47.275Z,5.77
2019-01-09T10:50:47.261Z,5.96
2019-01-09T10:51:47.230Z,5.96
2019-01-09T10:52:47.221Z,5.83
2019-01-09T10:53:47.219Z,6.00
2019-01-09T10:54:47.179Z,5.91
2019-01-09T10:55:47.194Z,5.89
2019-01-09T10:56:47.150Z,5.92
2019-01-09T10:57:47.214Z,5.95
2019-01-09T10:58:47.172Z,6.01
2019-01-09T10:59:47.132Z,5.98
2019-01-09T11:00:47.114Z,6.00
2019-01-09T11:01:47.149Z,5.83
2019-01-09T11:02:47.167Z,5.89
2019-01-09T11:03:47.158Z,5.98
2019-01-09T11:04:47.180Z,5.91
2019-01-09T11:05:47.098Z,5.85
2019-01-09T11:06:47.073Z,5.88
2019-01-09T11:07:47.042Z,5.91
2019-01-09T11:08:47.405Z,5.81
2019-01-09T11:09:47.084Z,5.83
2019-01-09T11:10:47.110Z,5.82
2019-01-09T11:11:47.012Z,5.77
2019-01-09T11:12:47.001Z,5.96
2019-01-09T11:13:47.271Z,5.93
2019-01-09T11:14:47.044Z,5.85
2019-01-09T11:15:47.066Z,5.96
2019-01-09T11:16:47.174Z,5.92
2019-01-09T11:17:46.999Z,5.96
2019-01-09T11:18:46.982Z,6.01
2019-01-09T11:19:46.965Z,6.04
2019-01-09T11:20:46.991Z,6.00
2019-01-09T11:21:47.024Z,5.89
2019-01-09T11:22:46.985Z,5.93
2019-01-09T11:23:47.064Z,5.81
2019-01-09T11:24:46.941Z,5.78
2019-01-09T11:25:46.903Z,5.75
2019-01-09T11:26:46.892Z,5.78
2019-01-09T11:27:46.854Z,5.73
2019-01-09T11:28:46.844Z,5.75
2019-01-09T11:29:46.831Z,5.60
2019-01-09T11:30:46.825Z,5.70
2019-01-09T11:31:46.813Z,5.73
2019-01-09T11:32:46.808Z,5.63
2019-01-09T11:33:46.793Z,5.63
2019-01-09T11:34:46.814Z,5.56
2019-01-09T11:35:46.771Z,5.57
2019-01-09T11:36:46.766Z,5.68
2019-01-09T11:37:46.773Z,5.56
2019-01-09T11:38:55.495Z,5.63
2019-01-09T11:39:46.757Z,5.68
2019-01-09T11:40:46.734Z,5.67
2019-01-09T11:41:46.711Z,5.67
2019-01-09T11:42:46.709Z,5.71
2019-01-09T11:43:46.698Z,5.73
2019-01-09T11:44:46.690Z,5.63
2019-01-09T11:45:46.832Z,5.68
2019-01-09T11:46:46.672Z,5.71
2019-01-09T11:47:46.698Z,5.68
2019-01-09T11:48:46.792Z,5.70
2019-01-09T11:49:46.670Z,5.71
2019-01-09T11:50:46.635Z,5.74
2019-01-09T11:51:46.630Z,5.82
2019-01-09T11:52:46.608Z,5.78
2019-01-09T11:53:46.598Z,5.91
2019-01-09T11:54:46.589Z,5.83
2019-01-09T11:55:46.576Z,5.82
2019-01-09T11:56:46.567Z,5.92
2019-01-09T11:57:46.570Z,5.96
2019-01-09T11:58:46.554Z,5.96
2019-01-09T11:59:46.539Z,5.78
2019-01-09T12:00:46.546Z,5.85
2019-01-09T12:01:46.528Z,5.96
2019-01-09T12:02:46.628Z,6.01
2019-01-09T12:03:46.516Z,5.88
2019-01-09T12:04:46.492Z,5.95
2019-01-09T12:05:46.483Z,5.95
2019-01-09T12:06:46.481Z,5.75
2019-01-09T12:07:46.475Z,5.74
2019-01-09T12:08:46.458Z,5.75
2019-01-09T12:09:46.447Z,5.74
2019-01-09T12:10:46.470Z,5.71
2019-01-09T12:11:46.423Z,5.74
2019-01-09T12:12:46.441Z,5.73
2019-01-09T12:13:46.524Z,5.59
2019-01-09T12:14:46.396Z,5.50
2019-01-09T12:15:46.396Z,5.46
2019-01-09T12:16:46.398Z,5.35
2019-01-09T12:17:46.377Z,5.22
2019-01-09T12:18:46.365Z,5.10
2019-01-09T12:19:46.411Z,4.98
2019-01-09T12:20:46.411Z,5.09
2019-01-09T12:21:46.351Z,5.12
2019-01-09T12:22:46.331Z,5.12
2019-01-09T12:23:46.314Z,5.02
2019-01-09T12:24:46.362Z,5.07
2019-01-09T12:25:46.295Z,5.14
2019-01-09T12:26:46.287Z,5.12
2019-01-09T12:27:46.264Z,5.02
2019-01-09T12:28:53.488Z,5.16
2019-01-09T12:29:46.301Z,5.22
2019-01-09T12:30:46.239Z,5.30
2019-01-09T12:31:46.237Z,5.20
2019-01-09T12:32:46.262Z,5.27
2019-01-09T12:33:46.225Z,5.09
2019-01-09T12:34:46.195Z,4.95
2019-01-09T12:35:46.184Z,4.80
2019-01-09T12:36:46.185Z,4.80
2019-01-09T12:37:46.170Z,4.73
2019-01-09T12:38:46.163Z,4.67
2019-01-09T12:39:46.154Z,4.59
2019-01-09T12:40:46.198Z,4.73
2019-01-09T12:41:46.135Z,4.77
2019-01-09T12:42:46.119Z,4.64
2019-01-09T12:43:46.108Z,4.59
2019-01-09T12:44:46.102Z,4.46
2019-01-09T12:45:46.099Z,4.43
2019-01-09T12:46:46.082Z,4.43
2019-01-09T12:47:46.086Z,4.33
2019-01-09T12:48:46.061Z,4.40
2019-01-09T12:49:46.054Z,4.43
2019-01-09T12:50:46.041Z,4.40
2019-01-09T12:51:46.029Z,4.24
2019-01-09T12:52:46.022Z,4.25
2019-01-09T12:53:46.012Z,4.28
2019-01-09T12:54:46.012Z,4.32
2019-01-09T12:55:45.989Z,4.34
2019-01-09T12:56:45.999Z,4.40
2019-01-09T12:57:45.971Z,4.55
2019-01-09T12:58:45.968Z,4.61
2019-01-09T12:59:45.950Z,4.54
2019-01-09T13:00:45.949Z,4.59
2019-01-09T13:01:45.928Z,4.57
2019-01-09T13:02:45.932Z,4.55
2019-01-09T13:03:45.898Z,4.65
2019-01-09T13:04:45.899Z,4.33
2019-01-09T13:05:45.879Z,4.26
2019-01-09T13:06:45.872Z,4.19
2019-01-09T13:07:45.893Z,4.29
2019-01-09T13:08:45.859Z,4.28
2019-01-09T13:09:45.851Z,4.47
2019-01-09T13:10:45.841Z,4.54
2019-01-09T13:11:45.825Z,4.29
2019-01-09T13:12:45.845Z,4.40
2019-01-09T13:13:45.837Z,4.43
2019-01-09T13:14:45.797Z,4.42
2019-01-09T13:15:45.793Z,4.40
2019-01-09T13:16:53.426Z,4.42
2019-01-09T13:18:39.181Z,4.54
2019-01-09T13:19:39.148Z,4.58
2019-01-09T13:20:39.146Z,4.58
2019-01-09T13:21:39.131Z,4.59
2019-01-09T13:22:39.112Z,4.67
2019-01-09T13:23:39.100Z,4.55
2019-01-09T13:24:39.097Z,4.57
2019-01-09T13:25:46.771Z,4.57
2019-01-09T13:27:43.558Z,4.50
2019-01-09T13:28:43.549Z,4.42
2019-01-09T13:29:43.551Z,4.57
2019-01-09T13:30:43.524Z,4.58
2019-01-09T13:31:43.501Z,4.51
2019-01-09T13:32:43.556Z,4.59
2019-01-09T13:33:43.494Z,4.59
2019-01-09T13:34:43.474Z,4.58
2019-01-09T13:35:43.676Z,4.64
2019-01-09T13:36:43.454Z,4.64
2019-01-09T13:37:43.444Z,4.65
2019-01-09T13:38:43.448Z,4.52
2019-01-09T13:39:43.441Z,4.67
2019-01-09T13:40:43.455Z,4.55
2019-01-09T13:41:43.553Z,4.33
2019-01-09T13:42:43.476Z,4.46